sensor_id;sensor_type;location;lat;lon;timestamp;P1;durP1;ratioP1;P2;durP2;ratioP2
66421;SDS011;53228;51.380;0.098;2023-08-17T00:00:04;7.95;;;3.20;;
66421;SDS011;53228;51.380;0.098;2023-08-17T00:02:37;5.45;;;3.20;;
66421;SDS011;53228;51.380;0.098;2023-08-17T00:05:04;8.68;;;3.58;;
66421;SDS011;53228;51.380;0.098;2023-08-17T00:07:33;4.45;;;3.60;;
66421;SDS011;53228;51.380;0.098;2023-08-17T00:10:02;8.45;;;3.75;;
66421;SDS011;53228;51.380;0.098;2023-08-17T00:12:30;6.90;;;3.13;;
66421;SDS011;53228;51.380;0.098;2023-08-17T00:14:58;4.50;;;3.55;;
66421;SDS011;53228;51.380;0.098;2023-08-17T00:17:25;5.07;;;3.42;;
66421;SDS011;53228;51.380;0.098;2023-08-17T00:19:53;8.93;;;3.55;;
66421;SDS011;53228;51.380;0.098;2023-08-17T00:22:21;4.95;;;3.20;;
66421;SDS011;53228;51.380;0.098;2023-08-17T00:24:48;5.10;;;3.10;;
66421;SDS011;53228;51.380;0.098;2023-08-17T00:27:16;6.05;;;3.83;;
66421;SDS011;53228;51.380;0.098;2023-08-17T00:30:05;9.52;;;4.05;;
66421;SDS011;53228;51.380;0.098;2023-08-17T00:32:44;8.02;;;3.67;;
66421;SDS011;53228;51.380;0.098;2023-08-17T00:35:12;9.40;;;4.47;;
66421;SDS011;53228;51.380;0.098;2023-08-17T00:37:39;7.22;;;4.20;;
66421;SDS011;53228;51.380;0.098;2023-08-17T00:40:07;7.78;;;4.60;;
66421;SDS011;53228;51.380;0.098;2023-08-17T00:42:36;6.43;;;3.88;;
66421;SDS011;53228;51.380;0.098;2023-08-17T00:45:04;11.38;;;5.03;;
66421;SDS011;53228;51.380;0.098;2023-08-17T00:47:32;7.97;;;4.55;;
66421;SDS011;53228;51.380;0.098;2023-08-17T00:49:59;7.07;;;4.40;;
66421;SDS011;53228;51.380;0.098;2023-08-17T00:52:28;7.85;;;4.40;;
66421;SDS011;53228;51.380;0.098;2023-08-17T00:54:58;6.60;;;4.10;;
66421;SDS011;53228;51.380;0.098;2023-08-17T00:57:27;8.02;;;4.82;;
66421;SDS011;53228;51.380;0.098;2023-08-17T00:59:57;10.85;;;4.35;;
66421;SDS011;53228;51.380;0.098;2023-08-17T01:02:32;6.05;;;4.63;;
66421;SDS011;53228;51.380;0.098;2023-08-17T01:05:00;6.53;;;4.05;;
66421;SDS011;53228;51.380;0.098;2023-08-17T01:07:28;10.15;;;4.82;;
66421;SDS011;53228;51.380;0.098;2023-08-17T01:09:55;6.57;;;4.60;;
66421;SDS011;53228;51.380;0.098;2023-08-17T01:12:36;6.15;;;4.32;;
66421;SDS011;53228;51.380;0.098;2023-08-17T01:20:51;6.57;;;4.63;;
66421;SDS011;53228;51.380;0.098;2023-08-17T01:23:20;10.73;;;4.82;;
66421;SDS011;53228;51.380;0.098;2023-08-17T01:25:48;11.95;;;5.07;;
66421;SDS011;53228;51.380;0.098;2023-08-17T01:28:15;7.82;;;5.05;;
66421;SDS011;53228;51.380;0.098;2023-08-17T01:30:46;12.25;;;4.95;;
66421;SDS011;53228;51.380;0.098;2023-08-17T01:33:34;9.45;;;5.13;;
66421;SDS011;53228;51.380;0.098;2023-08-17T01:39:06;12.93;;;5.88;;
66421;SDS011;53228;51.380;0.098;2023-08-17T01:41:35;11.00;;;5.63;;
66421;SDS011;53228;51.380;0.098;2023-08-17T01:44:04;9.35;;;5.70;;
66421;SDS011;53228;51.380;0.098;2023-08-17T01:46:33;10.48;;;6.30;;
66421;SDS011;53228;51.380;0.098;2023-08-17T01:49:00;14.30;;;6.18;;
66421;SDS011;53228;51.380;0.098;2023-08-17T01:51:30;11.18;;;6.07;;
66421;SDS011;53228;51.380;0.098;2023-08-17T01:53:57;11.45;;;5.28;;
66421;SDS011;53228;51.380;0.098;2023-08-17T01:56:25;10.85;;;6.05;;
66421;SDS011;53228;51.380;0.098;2023-08-17T01:58:53;8.93;;;5.45;;
66421;SDS011;53228;51.380;0.098;2023-08-17T02:01:22;12.65;;;5.90;;
66421;SDS011;53228;51.380;0.098;2023-08-17T02:03:49;14.32;;;6.88;;
66421;SDS011;53228;51.380;0.098;2023-08-17T02:06:17;13.30;;;6.40;;
66421;SDS011;53228;51.380;0.098;2023-08-17T02:08:45;10.25;;;6.18;;
66421;SDS011;53228;51.380;0.098;2023-08-17T02:11:14;10.27;;;5.93;;
66421;SDS011;53228;51.380;0.098;2023-08-17T02:13:42;8.90;;;5.57;;
66421;SDS011;53228;51.380;0.098;2023-08-17T02:16:09;9.27;;;5.18;;
66421;SDS011;53228;51.380;0.098;2023-08-17T02:18:37;8.20;;;4.78;;
66421;SDS011;53228;51.380;0.098;2023-08-17T02:21:04;8.85;;;4.82;;
66421;SDS011;53228;51.380;0.098;2023-08-17T02:23:32;8.40;;;4.75;;
66421;SDS011;53228;51.380;0.098;2023-08-17T02:25:59;6.75;;;5.03;;
66421;SDS011;53228;51.380;0.098;2023-08-17T02:28:27;10.38;;;5.20;;
66421;SDS011;53228;51.380;0.098;2023-08-17T02:30:57;9.20;;;5.38;;
66421;SDS011;53228;51.380;0.098;2023-08-17T02:33:28;9.85;;;5.45;;
66421;SDS011;53228;51.380;0.098;2023-08-17T02:35:55;10.90;;;6.03;;
66421;SDS011;53228;51.380;0.098;2023-08-17T02:38:23;8.45;;;5.53;;
66421;SDS011;53228;51.380;0.098;2023-08-17T02:40:51;8.50;;;5.53;;
66421;SDS011;53228;51.380;0.098;2023-08-17T02:43:18;11.25;;;6.30;;
66421;SDS011;53228;51.380;0.098;2023-08-17T02:45:46;13.45;;;6.20;;
66421;SDS011;53228;51.380;0.098;2023-08-17T02:48:14;8.13;;;5.43;;
66421;SDS011;53228;51.380;0.098;2023-08-17T02:50:41;8.68;;;5.82;;
66421;SDS011;53228;51.380;0.098;2023-08-17T02:53:09;12.65;;;6.00;;
66421;SDS011;53228;51.380;0.098;2023-08-17T02:55:36;8.65;;;5.75;;
66421;SDS011;53228;51.380;0.098;2023-08-17T02:58:04;9.52;;;5.55;;
66421;SDS011;53228;51.380;0.098;2023-08-17T03:00:32;9.88;;;5.60;;
66421;SDS011;53228;51.380;0.098;2023-08-17T03:02:59;12.68;;;6.18;;
66421;SDS011;53228;51.380;0.098;2023-08-17T03:05:27;8.57;;;5.63;;
66421;SDS011;53228;51.380;0.098;2023-08-17T03:07:55;12.20;;;5.57;;
66421;SDS011;53228;51.380;0.098;2023-08-17T03:10:23;9.52;;;5.28;;
66421;SDS011;53228;51.380;0.098;2023-08-17T03:12:52;9.23;;;5.60;;
66421;SDS011;53228;51.380;0.098;2023-08-17T03:15:20;9.07;;;5.22;;
66421;SDS011;53228;51.380;0.098;2023-08-17T03:17:48;12.95;;;5.50;;
66421;SDS011;53228;51.380;0.098;2023-08-17T03:20:15;11.02;;;5.93;;
66421;SDS011;53228;51.380;0.098;2023-08-17T03:22:43;14.10;;;6.45;;
66421;SDS011;53228;51.380;0.098;2023-08-17T03:25:11;12.00;;;6.53;;
66421;SDS011;53228;51.380;0.098;2023-08-17T03:27:40;13.07;;;6.38;;
66421;SDS011;53228;51.380;0.098;2023-08-17T03:30:08;15.55;;;7.15;;
66421;SDS011;53228;51.380;0.098;2023-08-17T03:32:36;11.88;;;7.25;;
66421;SDS011;53228;51.380;0.098;2023-08-17T03:35:03;13.57;;;7.78;;
66421;SDS011;53228;51.380;0.098;2023-08-17T03:37:31;13.40;;;6.75;;
66421;SDS011;53228;51.380;0.098;2023-08-17T03:40:00;13.38;;;7.68;;
66421;SDS011;53228;51.380;0.098;2023-08-17T03:42:29;14.50;;;7.10;;
66421;SDS011;53228;51.380;0.098;2023-08-17T03:44:57;15.00;;;7.47;;
66421;SDS011;53228;51.380;0.098;2023-08-17T03:47:25;14.52;;;7.15;;
66421;SDS011;53228;51.380;0.098;2023-08-17T03:49:53;16.17;;;7.72;;
66421;SDS011;53228;51.380;0.098;2023-08-17T03:52:21;11.63;;;8.07;;
66421;SDS011;53228;51.380;0.098;2023-08-17T03:54:48;12.80;;;7.82;;
66421;SDS011;53228;51.380;0.098;2023-08-17T03:57:18;14.30;;;7.78;;
66421;SDS011;53228;51.380;0.098;2023-08-17T03:59:45;14.95;;;7.95;;
66421;SDS011;53228;51.380;0.098;2023-08-17T04:02:13;15.07;;;7.65;;
66421;SDS011;53228;51.380;0.098;2023-08-17T04:04:41;13.60;;;7.53;;
66421;SDS011;53228;51.380;0.098;2023-08-17T04:07:09;16.85;;;7.05;;
66421;SDS011;53228;51.380;0.098;2023-08-17T04:09:37;15.25;;;7.72;;
66421;SDS011;53228;51.380;0.098;2023-08-17T04:12:04;13.90;;;7.68;;
66421;SDS011;53228;51.380;0.098;2023-08-17T04:14:35;13.30;;;8.23;;
66421;SDS011;53228;51.380;0.098;2023-08-17T04:17:03;14.27;;;7.80;;
66421;SDS011;53228;51.380;0.098;2023-08-17T04:19:31;13.75;;;7.93;;
66421;SDS011;53228;51.380;0.098;2023-08-17T04:21:59;15.63;;;8.55;;
66421;SDS011;53228;51.380;0.098;2023-08-17T04:24:27;16.88;;;8.35;;
66421;SDS011;53228;51.380;0.098;2023-08-17T04:26:55;12.52;;;7.47;;
66421;SDS011;53228;51.380;0.098;2023-08-17T04:29:22;15.63;;;8.32;;
66421;SDS011;53228;51.380;0.098;2023-08-17T04:31:51;16.02;;;7.75;;
66421;SDS011;53228;51.380;0.098;2023-08-17T04:34:19;13.23;;;7.72;;
66421;SDS011;53228;51.380;0.098;2023-08-17T04:36:47;20.15;;;8.68;;
66421;SDS011;53228;51.380;0.098;2023-08-17T04:39:15;16.08;;;7.20;;
66421;SDS011;53228;51.380;0.098;2023-08-17T04:41:43;14.75;;;7.78;;
66421;SDS011;53228;51.380;0.098;2023-08-17T04:44:15;16.85;;;7.68;;
66421;SDS011;53228;51.380;0.098;2023-08-17T04:46:43;14.60;;;7.90;;
66421;SDS011;53228;51.380;0.098;2023-08-17T04:49:10;12.77;;;7.55;;
66421;SDS011;53228;51.380;0.098;2023-08-17T04:51:38;15.93;;;7.50;;
66421;SDS011;53228;51.380;0.098;2023-08-17T04:54:07;12.45;;;7.47;;
66421;SDS011;53228;51.380;0.098;2023-08-17T04:56:35;15.38;;;7.97;;
66421;SDS011;53228;51.380;0.098;2023-08-17T04:59:03;14.60;;;7.90;;
66421;SDS011;53228;51.380;0.098;2023-08-17T05:01:32;17.17;;;8.35;;
66421;SDS011;53228;51.380;0.098;2023-08-17T05:04:01;13.68;;;8.30;;
66421;SDS011;53228;51.380;0.098;2023-08-17T05:06:29;18.83;;;8.65;;
66421;SDS011;53228;51.380;0.098;2023-08-17T05:08:57;16.20;;;8.60;;
66421;SDS011;53228;51.380;0.098;2023-08-17T05:11:25;15.40;;;8.35;;
66421;SDS011;53228;51.380;0.098;2023-08-17T05:13:52;16.10;;;9.13;;
66421;SDS011;53228;51.380;0.098;2023-08-17T05:16:20;13.63;;;7.80;;
66421;SDS011;53228;51.380;0.098;2023-08-17T05:18:48;16.63;;;8.27;;
66421;SDS011;53228;51.380;0.098;2023-08-17T05:21:16;16.05;;;8.20;;
66421;SDS011;53228;51.380;0.098;2023-08-17T05:23:44;15.30;;;8.07;;
66421;SDS011;53228;51.380;0.098;2023-08-17T05:26:11;15.80;;;8.90;;
66421;SDS011;53228;51.380;0.098;2023-08-17T05:28:42;14.75;;;7.70;;
66421;SDS011;53228;51.380;0.098;2023-08-17T05:31:12;15.50;;;7.85;;
66421;SDS011;53228;51.380;0.098;2023-08-17T05:33:43;16.60;;;8.38;;
66421;SDS011;53228;51.380;0.098;2023-08-17T05:36:11;17.95;;;8.50;;
66421;SDS011;53228;51.380;0.098;2023-08-17T05:38:40;13.68;;;7.53;;
66421;SDS011;53228;51.380;0.098;2023-08-17T05:41:07;16.77;;;7.75;;
66421;SDS011;53228;51.380;0.098;2023-08-17T05:43:35;16.83;;;7.75;;
66421;SDS011;53228;51.380;0.098;2023-08-17T05:46:03;12.75;;;6.75;;
66421;SDS011;53228;51.380;0.098;2023-08-17T05:48:32;18.02;;;8.65;;
66421;SDS011;53228;51.380;0.098;2023-08-17T05:50:59;11.40;;;6.78;;
66421;SDS011;53228;51.380;0.098;2023-08-17T05:53:27;18.65;;;7.40;;
66421;SDS011;53228;51.380;0.098;2023-08-17T05:55:54;14.48;;;6.60;;
66421;SDS011;53228;51.380;0.098;2023-08-17T05:58:22;11.02;;;6.20;;
66421;SDS011;53228;51.380;0.098;2023-08-17T06:00:50;14.48;;;5.97;;
66421;SDS011;53228;51.380;0.098;2023-08-17T06:03:18;14.30;;;6.57;;
66421;SDS011;53228;51.380;0.098;2023-08-17T06:05:46;14.52;;;6.45;;
66421;SDS011;53228;51.380;0.098;2023-08-17T06:08:13;13.18;;;6.55;;
66421;SDS011;53228;51.380;0.098;2023-08-17T06:10:41;10.13;;;6.10;;
66421;SDS011;53228;51.380;0.098;2023-08-17T06:13:08;9.10;;;5.70;;
66421;SDS011;53228;51.380;0.098;2023-08-17T06:15:36;11.38;;;5.97;;
66421;SDS011;53228;51.380;0.098;2023-08-17T06:18:04;11.55;;;6.10;;
66421;SDS011;53228;51.380;0.098;2023-08-17T06:20:32;10.60;;;5.35;;
66421;SDS011;53228;51.380;0.098;2023-08-17T06:23:00;10.48;;;5.22;;
66421;SDS011;53228;51.380;0.098;2023-08-17T06:25:27;10.63;;;5.50;;
66421;SDS011;53228;51.380;0.098;2023-08-17T06:27:55;7.85;;;5.13;;
66421;SDS011;53228;51.380;0.098;2023-08-17T06:30:22;10.68;;;5.70;;
66421;SDS011;53228;51.380;0.098;2023-08-17T06:32:50;8.82;;;5.50;;
66421;SDS011;53228;51.380;0.098;2023-08-17T06:35:18;7.93;;;5.25;;
66421;SDS011;53228;51.380;0.098;2023-08-17T06:37:46;8.15;;;5.00;;
66421;SDS011;53228;51.380;0.098;2023-08-17T06:40:14;9.05;;;5.60;;
66421;SDS011;53228;51.380;0.098;2023-08-17T06:42:41;11.27;;;6.20;;
66421;SDS011;53228;51.380;0.098;2023-08-17T06:45:09;9.32;;;5.43;;
66421;SDS011;53228;51.380;0.098;2023-08-17T06:47:37;9.25;;;5.22;;
66421;SDS011;53228;51.380;0.098;2023-08-17T06:50:05;9.18;;;5.88;;
66421;SDS011;53228;51.380;0.098;2023-08-17T06:52:33;12.73;;;6.10;;
66421;SDS011;53228;51.380;0.098;2023-08-17T06:55:01;8.95;;;5.55;;
66421;SDS011;53228;51.380;0.098;2023-08-17T06:57:29;11.40;;;6.75;;
66421;SDS011;53228;51.380;0.098;2023-08-17T06:59:57;8.98;;;6.38;;
66421;SDS011;53228;51.380;0.098;2023-08-17T07:02:25;11.43;;;6.43;;
66421;SDS011;53228;51.380;0.098;2023-08-17T07:05:05;10.57;;;6.25;;
66421;SDS011;53228;51.380;0.098;2023-08-17T07:07:33;10.38;;;5.78;;
66421;SDS011;53228;51.380;0.098;2023-08-17T07:10:00;11.80;;;6.82;;
66421;SDS011;53228;51.380;0.098;2023-08-17T07:12:29;11.15;;;6.28;;
66421;SDS011;53228;51.380;0.098;2023-08-17T07:14:57;12.95;;;6.78;;
66421;SDS011;53228;51.380;0.098;2023-08-17T07:17:25;14.25;;;6.47;;
66421;SDS011;53228;51.380;0.098;2023-08-17T07:19:53;11.95;;;6.18;;
66421;SDS011;53228;51.380;0.098;2023-08-17T07:22:41;11.05;;;5.25;;
66421;SDS011;53228;51.380;0.098;2023-08-17T07:25:08;9.23;;;5.20;;
66421;SDS011;53228;51.380;0.098;2023-08-17T07:27:36;12.52;;;5.55;;
66421;SDS011;53228;51.380;0.098;2023-08-17T07:30:04;9.95;;;5.70;;
66421;SDS011;53228;51.380;0.098;2023-08-17T07:32:33;11.80;;;5.60;;
66421;SDS011;53228;51.380;0.098;2023-08-17T07:35:01;10.80;;;6.15;;
66421;SDS011;53228;51.380;0.098;2023-08-17T07:37:28;11.10;;;5.80;;
66421;SDS011;53228;51.380;0.098;2023-08-17T07:40:00;9.75;;;6.18;;
66421;SDS011;53228;51.380;0.098;2023-08-17T07:42:31;9.88;;;5.70;;
66421;SDS011;53228;51.380;0.098;2023-08-17T07:44:59;11.20;;;5.05;;
66421;SDS011;53228;51.380;0.098;2023-08-17T07:47:27;11.25;;;4.72;;
66421;SDS011;53228;51.380;0.098;2023-08-17T07:49:55;11.30;;;5.38;;
66421;SDS011;53228;51.380;0.098;2023-08-17T07:52:24;8.70;;;5.88;;
66421;SDS011;53228;51.380;0.098;2023-08-17T07:54:52;18.58;;;5.95;;
66421;SDS011;53228;51.380;0.098;2023-08-17T07:57:20;13.80;;;5.93;;
66421;SDS011;53228;51.380;0.098;2023-08-17T07:59:48;10.27;;;6.60;;
66421;SDS011;53228;51.380;0.098;2023-08-17T08:02:15;10.27;;;5.18;;
66421;SDS011;53228;51.380;0.098;2023-08-17T08:04:43;10.20;;;4.80;;
66421;SDS011;53228;51.380;0.098;2023-08-17T08:07:10;16.73;;;5.00;;
66421;SDS011;53228;51.380;0.098;2023-08-17T08:09:38;7.85;;;5.55;;
66421;SDS011;53228;51.380;0.098;2023-08-17T08:12:06;12.30;;;4.10;;
66421;SDS011;53228;51.380;0.098;2023-08-17T08:14:35;9.60;;;4.38;;
66421;SDS011;53228;51.380;0.098;2023-08-17T08:17:03;9.05;;;4.18;;
66421;SDS011;53228;51.380;0.098;2023-08-17T08:19:31;13.13;;;4.85;;
66421;SDS011;53228;51.380;0.098;2023-08-17T08:21:59;10.52;;;5.78;;
66421;SDS011;53228;51.380;0.098;2023-08-17T08:24:29;7.95;;;4.70;;
66421;SDS011;53228;51.380;0.098;2023-08-17T08:27:04;8.05;;;4.10;;
66421;SDS011;53228;51.380;0.098;2023-08-17T08:29:32;11.68;;;4.50;;
66421;SDS011;53228;51.380;0.098;2023-08-17T08:32:00;8.85;;;4.63;;
66421;SDS011;53228;51.380;0.098;2023-08-17T08:34:29;6.50;;;5.00;;
66421;SDS011;53228;51.380;0.098;2023-08-17T08:36:57;9.80;;;4.68;;
66421;SDS011;53228;51.380;0.098;2023-08-17T08:39:25;9.52;;;5.45;;
66421;SDS011;53228;51.380;0.098;2023-08-17T08:41:54;9.27;;;5.47;;
66421;SDS011;53228;51.380;0.098;2023-08-17T08:44:22;9.30;;;5.63;;
66421;SDS011;53228;51.380;0.098;2023-08-17T08:46:50;8.52;;;4.25;;
66421;SDS011;53228;51.380;0.098;2023-08-17T08:49:22;8.88;;;4.53;;
66421;SDS011;53228;51.380;0.098;2023-08-17T08:54:23;8.27;;;5.25;;
66421;SDS011;53228;51.380;0.098;2023-08-17T08:56:54;7.03;;;4.13;;
66421;SDS011;53228;51.380;0.098;2023-08-17T08:59:28;7.00;;;4.20;;
66421;SDS011;53228;51.380;0.098;2023-08-17T09:01:57;10.63;;;4.95;;
66421;SDS011;53228;51.380;0.098;2023-08-17T09:04:25;8.40;;;4.18;;
66421;SDS011;53228;51.380;0.098;2023-08-17T09:06:54;5.93;;;4.18;;
66421;SDS011;53228;51.380;0.098;2023-08-17T09:09:23;11.07;;;4.60;;
66421;SDS011;53228;51.380;0.098;2023-08-17T09:11:56;8.93;;;4.55;;
66421;SDS011;53228;51.380;0.098;2023-08-17T09:14:23;11.30;;;4.93;;
66421;SDS011;53228;51.380;0.098;2023-08-17T09:16:51;10.65;;;4.50;;
66421;SDS011;53228;51.380;0.098;2023-08-17T09:19:19;6.85;;;4.38;;
66421;SDS011;53228;51.380;0.098;2023-08-17T09:21:47;9.05;;;4.22;;
66421;SDS011;53228;51.380;0.098;2023-08-17T09:24:17;6.28;;;3.72;;
66421;SDS011;53228;51.380;0.098;2023-08-17T09:26:45;9.77;;;4.45;;
66421;SDS011;53228;51.380;0.098;2023-08-17T09:29:17;6.30;;;3.75;;
66421;SDS011;53228;51.380;0.098;2023-08-17T09:31:48;5.82;;;3.75;;
66421;SDS011;53228;51.380;0.098;2023-08-17T09:34:16;6.60;;;4.10;;
66421;SDS011;53228;51.380;0.098;2023-08-17T09:36:46;6.35;;;3.72;;
66421;SDS011;53228;51.380;0.098;2023-08-17T09:39:17;8.27;;;3.63;;
66421;SDS011;53228;51.380;0.098;2023-08-17T09:41:45;8.68;;;4.13;;
66421;SDS011;53228;51.380;0.098;2023-08-17T09:44:13;8.63;;;4.47;;
66421;SDS011;53228;51.380;0.098;2023-08-17T09:46:44;9.50;;;3.55;;
66421;SDS011;53228;51.380;0.098;2023-08-17T09:49:11;4.53;;;3.53;;
66421;SDS011;53228;51.380;0.098;2023-08-17T09:51:45;8.98;;;4.35;;
66421;SDS011;53228;51.380;0.098;2023-08-17T09:54:20;5.03;;;4.03;;
66421;SDS011;53228;51.380;0.098;2023-08-17T09:57:01;6.05;;;3.30;;
66421;SDS011;53228;51.380;0.098;2023-08-17T09:59:43;7.20;;;3.58;;
66421;SDS011;53228;51.380;0.098;2023-08-17T10:02:20;4.53;;;3.17;;
66421;SDS011;53228;51.380;0.098;2023-08-17T10:04:54;6.70;;;3.55;;
66421;SDS011;53228;51.380;0.098;2023-08-17T10:07:28;5.28;;;3.60;;
66421;SDS011;53228;51.380;0.098;2023-08-17T10:10:02;5.05;;;2.90;;
66421;SDS011;53228;51.380;0.098;2023-08-17T10:12:40;6.90;;;3.00;;
66421;SDS011;53228;51.380;0.098;2023-08-17T10:15:15;5.95;;;3.42;;
66421;SDS011;53228;51.380;0.098;2023-08-17T10:17:56;12.00;;;3.38;;
66421;SDS011;53228;51.380;0.098;2023-08-17T10:20:30;5.78;;;3.10;;
66421;SDS011;53228;51.380;0.098;2023-08-17T10:25:49;8.15;;;3.13;;
66421;SDS011;53228;51.380;0.098;2023-08-17T10:28:17;4.13;;;2.88;;
66421;SDS011;53228;51.380;0.098;2023-08-17T10:30:45;5.95;;;3.50;;
66421;SDS011;53228;51.380;0.098;2023-08-17T10:33:15;4.93;;;2.80;;
66421;SDS011;53228;51.380;0.098;2023-08-17T10:35:43;5.03;;;2.55;;
66421;SDS011;53228;51.380;0.098;2023-08-17T10:38:11;7.95;;;2.72;;
66421;SDS011;53228;51.380;0.098;2023-08-17T10:40:40;7.20;;;2.47;;
66421;SDS011;53228;51.380;0.098;2023-08-17T10:43:08;6.85;;;2.75;;
66421;SDS011;53228;51.380;0.098;2023-08-17T10:45:38;4.85;;;2.72;;
66421;SDS011;53228;51.380;0.098;2023-08-17T10:50:34;7.32;;;2.13;;
66421;SDS011;53228;51.380;0.098;2023-08-17T10:53:10;3.78;;;2.33;;
66421;SDS011;53228;51.380;0.098;2023-08-17T10:55:39;4.78;;;2.35;;
66421;SDS011;53228;51.380;0.098;2023-08-17T10:58:08;5.72;;;2.10;;
66421;SDS011;53228;51.380;0.098;2023-08-17T11:00:41;3.90;;;2.03;;
66421;SDS011;53228;51.380;0.098;2023-08-17T11:03:17;4.13;;;2.10;;
66421;SDS011;53228;51.380;0.098;2023-08-17T11:11:24;7.72;;;2.53;;
66421;SDS011;53228;51.380;0.098;2023-08-17T11:13:45;7.05;;;1.70;;
66421;SDS011;53228;51.380;0.098;2023-08-17T11:16:14;3.97;;;1.85;;
66421;SDS011;53228;51.380;0.098;2023-08-17T11:18:45;6.80;;;2.55;;
66421;SDS011;53228;51.380;0.098;2023-08-17T11:21:14;8.57;;;1.98;;
66421;SDS011;53228;51.380;0.098;2023-08-17T11:23:44;4.97;;;1.98;;
66421;SDS011;53228;51.380;0.098;2023-08-17T11:26:16;4.32;;;1.60;;
66421;SDS011;53228;51.380;0.098;2023-08-17T11:28:44;4.65;;;1.83;;
66421;SDS011;53228;51.380;0.098;2023-08-17T11:31:12;2.50;;;1.50;;
66421;SDS011;53228;51.380;0.098;2023-08-17T11:33:43;2.53;;;1.23;;
66421;SDS011;53228;51.380;0.098;2023-08-17T11:36:12;5.30;;;1.38;;
66421;SDS011;53228;51.380;0.098;2023-08-17T11:38:40;5.50;;;1.20;;
66421;SDS011;53228;51.380;0.098;2023-08-17T11:41:09;3.90;;;1.30;;
66421;SDS011;53228;51.380;0.098;2023-08-17T11:43:44;3.63;;;1.17;;
66421;SDS011;53228;51.380;0.098;2023-08-17T11:46:13;4.28;;;1.20;;
66421;SDS011;53228;51.380;0.098;2023-08-17T11:48:45;4.68;;;1.20;;
66421;SDS011;53228;51.380;0.098;2023-08-17T11:51:51;4.35;;;1.10;;
66421;SDS011;53228;51.380;0.098;2023-08-17T11:54:19;5.25;;;1.50;;
66421;SDS011;53228;51.380;0.098;2023-08-17T11:56:48;2.97;;;1.02;;
66421;SDS011;53228;51.380;0.098;2023-08-17T11:59:17;7.68;;;1.50;;
66421;SDS011;53228;51.380;0.098;2023-08-17T12:01:45;2.63;;;0.90;;
66421;SDS011;53228;51.380;0.098;2023-08-17T12:04:13;2.95;;;0.80;;
66421;SDS011;53228;51.380;0.098;2023-08-17T12:06:44;7.90;;;1.60;;
66421;SDS011;53228;51.380;0.098;2023-08-17T12:09:12;2.53;;;1.20;;
66421;SDS011;53228;51.380;0.098;2023-08-17T12:11:41;6.10;;;1.30;;
66421;SDS011;53228;51.380;0.098;2023-08-17T12:14:09;3.97;;;1.23;;
66421;SDS011;53228;51.380;0.098;2023-08-17T12:19:13;4.88;;;1.33;;
66421;SDS011;53228;51.380;0.098;2023-08-17T12:21:41;4.03;;;1.20;;
66421;SDS011;53228;51.380;0.098;2023-08-17T12:24:09;2.63;;;1.30;;
66421;SDS011;53228;51.380;0.098;2023-08-17T12:26:42;5.28;;;1.13;;
66421;SDS011;53228;51.380;0.098;2023-08-17T12:29:10;4.22;;;1.33;;
66421;SDS011;53228;51.380;0.098;2023-08-17T12:31:38;3.60;;;1.33;;
66421;SDS011;53228;51.380;0.098;2023-08-17T12:34:06;2.20;;;1.17;;
66421;SDS011;53228;51.380;0.098;2023-08-17T12:36:34;4.03;;;1.40;;
66421;SDS011;53228;51.380;0.098;2023-08-17T12:39:04;4.35;;;1.40;;
66421;SDS011;53228;51.380;0.098;2023-08-17T12:41:32;4.97;;;1.75;;
66421;SDS011;53228;51.380;0.098;2023-08-17T12:44:00;2.78;;;1.10;;
66421;SDS011;53228;51.380;0.098;2023-08-17T12:46:28;4.22;;;1.30;;
66421;SDS011;53228;51.380;0.098;2023-08-17T12:48:59;1.90;;;1.20;;
66421;SDS011;53228;51.380;0.098;2023-08-17T12:51:27;3.22;;;1.20;;
66421;SDS011;53228;51.380;0.098;2023-08-17T12:53:55;4.15;;;1.30;;
66421;SDS011;53228;51.380;0.098;2023-08-17T12:56:23;7.35;;;1.42;;
66421;SDS011;53228;51.380;0.098;2023-08-17T12:58:50;2.80;;;1.40;;
66421;SDS011;53228;51.380;0.098;2023-08-17T13:01:18;3.60;;;1.23;;
66421;SDS011;53228;51.380;0.098;2023-08-17T13:03:46;10.80;;;1.85;;
66421;SDS011;53228;51.380;0.098;2023-08-17T13:06:13;3.42;;;1.35;;
66421;SDS011;53228;51.380;0.098;2023-08-17T13:08:41;4.30;;;1.40;;
66421;SDS011;53228;51.380;0.098;2023-08-17T13:11:10;5.68;;;1.17;;
66421;SDS011;53228;51.380;0.098;2023-08-17T13:13:37;3.95;;;1.35;;
66421;SDS011;53228;51.380;0.098;2023-08-17T13:16:05;2.10;;;1.02;;
66421;SDS011;53228;51.380;0.098;2023-08-17T13:18:33;2.38;;;1.38;;
66421;SDS011;53228;51.380;0.098;2023-08-17T13:21:00;5.93;;;1.20;;
66421;SDS011;53228;51.380;0.098;2023-08-17T13:23:28;2.50;;;1.15;;
66421;SDS011;53228;51.380;0.098;2023-08-17T13:25:55;2.10;;;1.27;;
66421;SDS011;53228;51.380;0.098;2023-08-17T13:28:23;2.75;;;1.30;;
66421;SDS011;53228;51.380;0.098;2023-08-17T13:30:51;4.75;;;1.50;;
66421;SDS011;53228;51.380;0.098;2023-08-17T13:33:19;1.40;;;1.20;;
66421;SDS011;53228;51.380;0.098;2023-08-17T13:35:46;4.57;;;1.05;;
66421;SDS011;53228;51.380;0.098;2023-08-17T13:38:14;3.40;;;1.35;;
66421;SDS011;53228;51.380;0.098;2023-08-17T13:40:41;5.57;;;1.52;;
66421;SDS011;53228;51.380;0.098;2023-08-17T13:43:09;2.50;;;1.30;;
66421;SDS011;53228;51.380;0.098;2023-08-17T13:45:39;3.35;;;1.50;;
66421;SDS011;53228;51.380;0.098;2023-08-17T13:48:07;1.35;;;1.00;;
66421;SDS011;53228;51.380;0.098;2023-08-17T13:50:37;5.18;;;1.55;;
66421;SDS011;53228;51.380;0.098;2023-08-17T13:53:05;3.63;;;1.20;;
66421;SDS011;53228;51.380;0.098;2023-08-17T13:55:33;2.28;;;1.25;;
66421;SDS011;53228;51.380;0.098;2023-08-17T13:58:00;1.42;;;1.23;;
66421;SDS011;53228;51.380;0.098;2023-08-17T14:00:29;2.55;;;1.10;;
66421;SDS011;53228;51.380;0.098;2023-08-17T14:02:57;3.10;;;1.08;;
66421;SDS011;53228;51.380;0.098;2023-08-17T14:05:24;3.25;;;1.30;;
66421;SDS011;53228;51.380;0.098;2023-08-17T14:07:52;5.72;;;1.20;;
66421;SDS011;53228;51.380;0.098;2023-08-17T14:10:20;3.10;;;1.30;;
66421;SDS011;53228;51.380;0.098;2023-08-17T14:13:04;2.25;;;1.27;;
66421;SDS011;53228;51.380;0.098;2023-08-17T14:15:32;5.32;;;1.55;;
66421;SDS011;53228;51.380;0.098;2023-08-17T14:18:00;3.03;;;1.08;;
66421;SDS011;53228;51.380;0.098;2023-08-17T14:20:27;4.93;;;1.70;;
66421;SDS011;53228;51.380;0.098;2023-08-17T14:22:55;5.28;;;1.50;;
66421;SDS011;53228;51.380;0.098;2023-08-17T14:25:23;5.68;;;1.20;;
66421;SDS011;53228;51.380;0.098;2023-08-17T14:27:50;2.85;;;1.60;;
66421;SDS011;53228;51.380;0.098;2023-08-17T14:30:18;3.88;;;1.20;;
66421;SDS011;53228;51.380;0.098;2023-08-17T14:32:46;5.07;;;1.10;;
66421;SDS011;53228;51.380;0.098;2023-08-17T14:35:14;2.55;;;1.45;;
66421;SDS011;53228;51.380;0.098;2023-08-17T14:37:41;1.63;;;1.13;;
66421;SDS011;53228;51.380;0.098;2023-08-17T14:40:09;4.20;;;1.15;;
66421;SDS011;53228;51.380;0.098;2023-08-17T14:42:37;5.82;;;1.40;;
66421;SDS011;53228;51.380;0.098;2023-08-17T14:45:05;1.98;;;1.20;;
66421;SDS011;53228;51.380;0.098;2023-08-17T14:47:34;6.93;;;1.40;;
66421;SDS011;53228;51.380;0.098;2023-08-17T14:50:01;5.57;;;1.20;;
66421;SDS011;53228;51.380;0.098;2023-08-17T14:52:29;2.25;;;1.13;;
66421;SDS011;53228;51.380;0.098;2023-08-17T14:55:00;1.60;;;1.20;;
66421;SDS011;53228;51.380;0.098;2023-08-17T14:57:29;4.65;;;1.33;;
66421;SDS011;53228;51.380;0.098;2023-08-17T14:59:57;5.97;;;1.63;;
66421;SDS011;53228;51.380;0.098;2023-08-17T15:02:24;5.15;;;1.50;;
66421;SDS011;53228;51.380;0.098;2023-08-17T15:04:52;5.53;;;1.63;;
66421;SDS011;53228;51.380;0.098;2023-08-17T15:07:19;3.70;;;1.40;;
66421;SDS011;53228;51.380;0.098;2023-08-17T15:09:47;2.10;;;1.05;;
66421;SDS011;53228;51.380;0.098;2023-08-17T15:12:15;3.45;;;1.13;;
66421;SDS011;53228;51.380;0.098;2023-08-17T15:14:43;2.15;;;1.00;;
66421;SDS011;53228;51.380;0.098;2023-08-17T15:17:10;2.05;;;1.00;;